sensor_id;sensor_type;location;lat;lon;timestamp;P1;durP1;ratioP1;P2;durP2;ratioP2
11439;SDS011;5776;51.814;4.510;2023-01-25T00:00:42;21.33;;;14.43;;
11439;SDS011;5776;51.814;4.510;2023-01-25T00:03:09;20.23;;;14.03;;
11439;SDS011;5776;51.814;4.510;2023-01-25T00:05:35;21.03;;;14.90;;
11439;SDS011;5776;51.814;4.510;2023-01-25T00:08:01;18.43;;;12.90;;
11439;SDS011;5776;51.814;4.510;2023-01-25T00:10:26;20.50;;;14.70;;
11439;SDS011;5776;51.814;4.510;2023-01-25T00:12:52;22.80;;;14.60;;
11439;SDS011;5776;51.814;4.510;2023-01-25T00:15:18;21.17;;;14.63;;
11439;SDS011;5776;51.814;4.510;2023-01-25T00:17:44;20.70;;;14.93;;
11439;SDS011;5776;51.814;4.510;2023-01-25T00:20:10;21.23;;;13.43;;
11439;SDS011;5776;51.814;4.510;2023-01-25T00:22:36;19.73;;;14.17;;
11439;SDS011;5776;51.814;4.510;2023-01-25T00:25:02;22.90;;;15.27;;
11439;SDS011;5776;51.814;4.510;2023-01-25T00:27:27;20.50;;;13.70;;
11439;SDS011;5776;51.814;4.510;2023-01-25T00:29:53;21.27;;;15.37;;
11439;SDS011;5776;51.814;4.510;2023-01-25T00:34:46;21.07;;;15.33;;
11439;SDS011;5776;51.814;4.510;2023-01-25T00:39:42;22.67;;;15.70;;
11439;SDS011;5776;51.814;4.510;2023-01-25T00:42:12;21.60;;;14.83;;
11439;SDS011;5776;51.814;4.510;2023-01-25T00:44:39;23.90;;;16.03;;
11439;SDS011;5776;51.814;4.510;2023-01-25T00:47:05;21.53;;;13.17;;
11439;SDS011;5776;51.814;4.510;2023-01-25T00:49:31;25.47;;;15.33;;
11439;SDS011;5776;51.814;4.510;2023-01-25T00:51:57;21.27;;;14.27;;
11439;SDS011;5776;51.814;4.510;2023-01-25T00:54:23;25.43;;;18.03;;
11439;SDS011;5776;51.814;4.510;2023-01-25T00:56:49;26.27;;;17.83;;
11439;SDS011;5776;51.814;4.510;2023-01-25T00:59:18;22.43;;;14.30;;
11439;SDS011;5776;51.814;4.510;2023-01-25T01:01:44;25.70;;;18.73;;
11439;SDS011;5776;51.814;4.510;2023-01-25T01:04:10;24.47;;;16.93;;
11439;SDS011;5776;51.814;4.510;2023-01-25T01:06:36;26.00;;;18.33;;
11439;SDS011;5776;51.814;4.510;2023-01-25T01:09:04;23.70;;;16.87;;
11439;SDS011;5776;51.814;4.510;2023-01-25T01:11:31;28.67;;;17.90;;
11439;SDS011;5776;51.814;4.510;2023-01-25T01:13:57;25.70;;;17.13;;
11439;SDS011;5776;51.814;4.510;2023-01-25T01:16:24;24.87;;;16.97;;
11439;SDS011;5776;51.814;4.510;2023-01-25T01:18:50;25.43;;;17.90;;
11439;SDS011;5776;51.814;4.510;2023-01-25T01:21:17;24.33;;;16.10;;
11439;SDS011;5776;51.814;4.510;2023-01-25T01:23:42;21.80;;;15.73;;
11439;SDS011;5776;51.814;4.510;2023-01-25T01:26:10;25.00;;;17.43;;
11439;SDS011;5776;51.814;4.510;2023-01-25T01:28:38;25.23;;;17.13;;
11439;SDS011;5776;51.814;4.510;2023-01-25T01:31:05;27.13;;;18.07;;
11439;SDS011;5776;51.814;4.510;2023-01-25T01:33:33;22.00;;;15.13;;
11439;SDS011;5776;51.814;4.510;2023-01-25T01:36:09;24.07;;;16.10;;
11439;SDS011;5776;51.814;4.510;2023-01-25T01:38:37;25.30;;;18.20;;
11439;SDS011;5776;51.814;4.510;2023-01-25T01:41:03;25.47;;;16.73;;
11439;SDS011;5776;51.814;4.510;2023-01-25T01:43:29;23.50;;;15.30;;
11439;SDS011;5776;51.814;4.510;2023-01-25T01:45:59;24.23;;;16.50;;
11439;SDS011;5776;51.814;4.510;2023-01-25T01:48:40;27.43;;;17.60;;
11439;SDS011;5776;51.814;4.510;2023-01-25T01:52:03;30.03;;;20.07;;
11439;SDS011;5776;51.814;4.510;2023-01-25T01:54:20;25.90;;;17.87;;
11439;SDS011;5776;51.814;4.510;2023-01-25T01:59:42;28.97;;;19.03;;
11439;SDS011;5776;51.814;4.510;2023-01-25T02:02:13;27.57;;;16.50;;
11439;SDS011;5776;51.814;4.510;2023-01-25T02:04:40;28.10;;;18.40;;
11439;SDS011;5776;51.814;4.510;2023-01-25T02:07:15;23.57;;;16.30;;
11439;SDS011;5776;51.814;4.510;2023-01-25T02:09:45;28.80;;;18.67;;
11439;SDS011;5776;51.814;4.510;2023-01-25T02:12:12;28.17;;;18.87;;
11439;SDS011;5776;51.814;4.510;2023-01-25T02:14:44;26.17;;;17.90;;
11439;SDS011;5776;51.814;4.510;2023-01-25T02:17:13;26.70;;;17.67;;
11439;SDS011;5776;51.814;4.510;2023-01-25T02:19:44;25.20;;;17.40;;
11439;SDS011;5776;51.814;4.510;2023-01-25T02:25:21;23.80;;;15.73;;
11439;SDS011;5776;51.814;4.510;2023-01-25T02:27:49;24.13;;;15.37;;
11439;SDS011;5776;51.814;4.510;2023-01-25T02:30:19;24.57;;;14.90;;
11439;SDS011;5776;51.814;4.510;2023-01-25T02:32:45;26.87;;;15.27;;
11439;SDS011;5776;51.814;4.510;2023-01-25T02:35:21;31.27;;;17.80;;
11439;SDS011;5776;51.814;4.510;2023-01-25T02:37:49;26.83;;;15.13;;
11439;SDS011;5776;51.814;4.510;2023-01-25T02:40:16;19.80;;;12.27;;
11439;SDS011;5776;51.814;4.510;2023-01-25T02:42:43;21.10;;;11.23;;
11439;SDS011;5776;51.814;4.510;2023-01-25T02:45:12;24.70;;;15.30;;
11439;SDS011;5776;51.814;4.510;2023-01-25T02:47:41;24.83;;;14.77;;
11439;SDS011;5776;51.814;4.510;2023-01-25T02:50:07;27.53;;;16.27;;
11439;SDS011;5776;51.814;4.510;2023-01-25T02:52:34;28.10;;;16.10;;
11439;SDS011;5776;51.814;4.510;2023-01-25T02:54:59;23.57;;;13.80;;
11439;SDS011;5776;51.814;4.510;2023-01-25T02:57:25;24.23;;;13.53;;
11439;SDS011;5776;51.814;4.510;2023-01-25T02:59:51;24.83;;;14.57;;
11439;SDS011;5776;51.814;4.510;2023-01-25T03:02:17;21.50;;;12.47;;
11439;SDS011;5776;51.814;4.510;2023-01-25T03:04:43;23.77;;;13.87;;
11439;SDS011;5776;51.814;4.510;2023-01-25T03:07:09;25.03;;;14.13;;
11439;SDS011;5776;51.814;4.510;2023-01-25T03:09:35;22.30;;;12.77;;
11439;SDS011;5776;51.814;4.510;2023-01-25T03:12:00;25.50;;;15.00;;
11439;SDS011;5776;51.814;4.510;2023-01-25T03:14:26;30.80;;;18.40;;
11439;SDS011;5776;51.814;4.510;2023-01-25T03:16:52;29.00;;;15.23;;
11439;SDS011;5776;51.814;4.510;2023-01-25T03:19:18;27.40;;;15.63;;
11439;SDS011;5776;51.814;4.510;2023-01-25T03:21:44;20.63;;;11.93;;
11439;SDS011;5776;51.814;4.510;2023-01-25T03:24:11;23.00;;;13.67;;
11439;SDS011;5776;51.814;4.510;2023-01-25T03:26:37;28.57;;;16.33;;
11439;SDS011;5776;51.814;4.510;2023-01-25T03:29:22;28.50;;;16.23;;
11439;SDS011;5776;51.814;4.510;2023-01-25T03:31:48;28.33;;;17.10;;
11439;SDS011;5776;51.814;4.510;2023-01-25T03:34:14;28.63;;;15.33;;
11439;SDS011;5776;51.814;4.510;2023-01-25T03:36:40;26.63;;;15.30;;
11439;SDS011;5776;51.814;4.510;2023-01-25T03:39:06;23.83;;;13.43;;
11439;SDS011;5776;51.814;4.510;2023-01-25T03:41:32;25.57;;;13.53;;
11439;SDS011;5776;51.814;4.510;2023-01-25T03:43:58;21.23;;;11.33;;
11439;SDS011;5776;51.814;4.510;2023-01-25T03:46:24;27.47;;;14.43;;
11439;SDS011;5776;51.814;4.510;2023-01-25T03:48:50;26.97;;;15.50;;
11439;SDS011;5776;51.814;4.510;2023-01-25T03:51:15;28.67;;;16.13;;
11439;SDS011;5776;51.814;4.510;2023-01-25T03:53:41;28.73;;;16.17;;
11439;SDS011;5776;51.814;4.510;2023-01-25T03:56:08;28.27;;;15.53;;
11439;SDS011;5776;51.814;4.510;2023-01-25T03:58:36;30.40;;;16.67;;
11439;SDS011;5776;51.814;4.510;2023-01-25T04:01:04;20.00;;;11.20;;
11439;SDS011;5776;51.814;4.510;2023-01-25T04:03:31;25.40;;;15.37;;
11439;SDS011;5776;51.814;4.510;2023-01-25T04:05:58;22.43;;;12.93;;
11439;SDS011;5776;51.814;4.510;2023-01-25T04:08:24;28.03;;;15.70;;
11439;SDS011;5776;51.814;4.510;2023-01-25T04:10:51;29.33;;;14.77;;
11439;SDS011;5776;51.814;4.510;2023-01-25T04:13:19;22.97;;;12.77;;
11439;SDS011;5776;51.814;4.510;2023-01-25T04:15:46;27.43;;;15.30;;
11439;SDS011;5776;51.814;4.510;2023-01-25T04:18:12;26.70;;;14.50;;
11439;SDS011;5776;51.814;4.510;2023-01-25T04:20:39;27.87;;;15.10;;
11439;SDS011;5776;51.814;4.510;2023-01-25T04:23:06;29.30;;;16.97;;
11439;SDS011;5776;51.814;4.510;2023-01-25T04:25:33;31.00;;;16.97;;
11439;SDS011;5776;51.814;4.510;2023-01-25T04:27:59;31.30;;;17.80;;
11439;SDS011;5776;51.814;4.510;2023-01-25T04:30:24;29.37;;;17.30;;
11439;SDS011;5776;51.814;4.510;2023-01-25T04:32:50;33.13;;;17.37;;
11439;SDS011;5776;51.814;4.510;2023-01-25T04:35:16;28.70;;;17.30;;
11439;SDS011;5776;51.814;4.510;2023-01-25T04:37:54;31.90;;;17.87;;
11439;SDS011;5776;51.814;4.510;2023-01-25T04:40:21;29.93;;;18.67;;
11439;SDS011;5776;51.814;4.510;2023-01-25T04:42:47;29.70;;;16.57;;
11439;SDS011;5776;51.814;4.510;2023-01-25T04:45:13;30.43;;;16.77;;
11439;SDS011;5776;51.814;4.510;2023-01-25T04:47:38;30.73;;;17.13;;
11439;SDS011;5776;51.814;4.510;2023-01-25T04:50:04;22.23;;;12.77;;
11439;SDS011;5776;51.814;4.510;2023-01-25T04:52:30;30.43;;;16.70;;
11439;SDS011;5776;51.814;4.510;2023-01-25T04:54:56;31.63;;;17.83;;
11439;SDS011;5776;51.814;4.510;2023-01-25T04:57:22;32.10;;;18.50;;
11439;SDS011;5776;51.814;4.510;2023-01-25T04:59:48;31.33;;;17.03;;
11439;SDS011;5776;51.814;4.510;2023-01-25T05:02:14;29.47;;;16.50;;
11439;SDS011;5776;51.814;4.510;2023-01-25T05:04:40;32.33;;;18.33;;
11439;SDS011;5776;51.814;4.510;2023-01-25T05:07:06;32.47;;;17.73;;
11439;SDS011;5776;51.814;4.510;2023-01-25T05:09:32;37.00;;;19.73;;
11439;SDS011;5776;51.814;4.510;2023-01-25T05:11:58;33.10;;;18.87;;
11439;SDS011;5776;51.814;4.510;2023-01-25T05:14:24;34.50;;;19.20;;
11439;SDS011;5776;51.814;4.510;2023-01-25T05:16:50;34.97;;;19.90;;
11439;SDS011;5776;51.814;4.510;2023-01-25T05:19:16;26.53;;;15.10;;
11439;SDS011;5776;51.814;4.510;2023-01-25T05:21:42;28.27;;;15.30;;
11439;SDS011;5776;51.814;4.510;2023-01-25T05:24:24;26.23;;;14.07;;
11439;SDS011;5776;51.814;4.510;2023-01-25T05:26:53;24.30;;;13.13;;
11439;SDS011;5776;51.814;4.510;2023-01-25T05:29:26;26.87;;;16.20;;
11439;SDS011;5776;51.814;4.510;2023-01-25T05:31:53;29.57;;;14.60;;
11439;SDS011;5776;51.814;4.510;2023-01-25T05:34:19;27.10;;;14.43;;
11439;SDS011;5776;51.814;4.510;2023-01-25T05:36:45;28.63;;;16.53;;
11439;SDS011;5776;51.814;4.510;2023-01-25T05:39:11;32.33;;;17.60;;
11439;SDS011;5776;51.814;4.510;2023-01-25T05:41:37;35.53;;;18.57;;
11439;SDS011;5776;51.814;4.510;2023-01-25T05:44:03;29.97;;;15.40;;
11439;SDS011;5776;51.814;4.510;2023-01-25T05:46:29;30.47;;;16.13;;
11439;SDS011;5776;51.814;4.510;2023-01-25T05:48:55;33.20;;;17.47;;
11439;SDS011;5776;51.814;4.510;2023-01-25T05:51:21;34.27;;;18.43;;
11439;SDS011;5776;51.814;4.510;2023-01-25T05:53:47;36.97;;;18.43;;
11439;SDS011;5776;51.814;4.510;2023-01-25T05:56:13;37.43;;;20.17;;
11439;SDS011;5776;51.814;4.510;2023-01-25T05:58:39;37.43;;;20.17;;
11439;SDS011;5776;51.814;4.510;2023-01-25T06:01:05;38.60;;;19.43;;
11439;SDS011;5776;51.814;4.510;2023-01-25T06:03:32;33.73;;;19.80;;
11439;SDS011;5776;51.814;4.510;2023-01-25T06:05:59;39.03;;;20.00;;
11439;SDS011;5776;51.814;4.510;2023-01-25T06:08:28;43.13;;;22.07;;
11439;SDS011;5776;51.814;4.510;2023-01-25T06:10:55;34.27;;;19.03;;
11439;SDS011;5776;51.814;4.510;2023-01-25T06:13:21;38.20;;;20.90;;
11439;SDS011;5776;51.814;4.510;2023-01-25T06:15:54;38.37;;;19.73;;
11439;SDS011;5776;51.814;4.510;2023-01-25T06:18:21;38.83;;;20.73;;
11439;SDS011;5776;51.814;4.510;2023-01-25T06:20:49;36.97;;;20.13;;
11439;SDS011;5776;51.814;4.510;2023-01-25T06:23:15;36.33;;;20.07;;
11439;SDS011;5776;51.814;4.510;2023-01-25T06:25:41;36.17;;;19.80;;
11439;SDS011;5776;51.814;4.510;2023-01-25T06:28:07;39.10;;;19.93;;
11439;SDS011;5776;51.814;4.510;2023-01-25T06:30:33;37.57;;;20.67;;
11439;SDS011;5776;51.814;4.510;2023-01-25T06:33:00;36.20;;;19.40;;
11439;SDS011;5776;51.814;4.510;2023-01-25T06:35:26;37.33;;;20.77;;
11439;SDS011;5776;51.814;4.510;2023-01-25T06:37:56;36.93;;;19.27;;
11439;SDS011;5776;51.814;4.510;2023-01-25T06:40:23;38.27;;;20.47;;
11439;SDS011;5776;51.814;4.510;2023-01-25T06:42:49;40.70;;;20.20;;
11439;SDS011;5776;51.814;4.510;2023-01-25T06:45:16;43.00;;;21.00;;
11439;SDS011;5776;51.814;4.510;2023-01-25T06:47:42;34.00;;;19.77;;
11439;SDS011;5776;51.814;4.510;2023-01-25T06:50:09;34.53;;;18.43;;
11439;SDS011;5776;51.814;4.510;2023-01-25T06:52:35;27.60;;;15.80;;
11439;SDS011;5776;51.814;4.510;2023-01-25T06:55:04;34.60;;;18.80;;
11439;SDS011;5776;51.814;4.510;2023-01-25T06:57:32;38.23;;;20.17;;
11439;SDS011;5776;51.814;4.510;2023-01-25T06:59:59;36.20;;;19.30;;
11439;SDS011;5776;51.814;4.510;2023-01-25T07:02:25;39.10;;;20.43;;
11439;SDS011;5776;51.814;4.510;2023-01-25T07:04:51;36.30;;;19.93;;
11439;SDS011;5776;51.814;4.510;2023-01-25T07:07:17;41.07;;;22.93;;
11439;SDS011;5776;51.814;4.510;2023-01-25T07:09:43;40.10;;;21.93;;
11439;SDS011;5776;51.814;4.510;2023-01-25T07:12:09;41.47;;;23.77;;
11439;SDS011;5776;51.814;4.510;2023-01-25T07:14:35;38.67;;;22.33;;
11439;SDS011;5776;51.814;4.510;2023-01-25T07:17:01;40.60;;;23.30;;
11439;SDS011;5776;51.814;4.510;2023-01-25T07:19:26;45.37;;;25.57;;
11439;SDS011;5776;51.814;4.510;2023-01-25T07:21:52;41.60;;;22.67;;
11439;SDS011;5776;51.814;4.510;2023-01-25T07:24:18;43.43;;;24.33;;
11439;SDS011;5776;51.814;4.510;2023-01-25T07:26:45;38.40;;;23.20;;
11439;SDS011;5776;51.814;4.510;2023-01-25T07:29:14;43.33;;;23.57;;
11439;SDS011;5776;51.814;4.510;2023-01-25T07:31:41;43.07;;;24.37;;
11439;SDS011;5776;51.814;4.510;2023-01-25T07:34:10;41.73;;;24.70;;
11439;SDS011;5776;51.814;4.510;2023-01-25T07:36:37;47.03;;;27.33;;
11439;SDS011;5776;51.814;4.510;2023-01-25T07:39:04;48.63;;;27.03;;
11439;SDS011;5776;51.814;4.510;2023-01-25T07:41:30;44.17;;;24.47;;
11439;SDS011;5776;51.814;4.510;2023-01-25T07:43:56;44.97;;;25.37;;
11439;SDS011;5776;51.814;4.510;2023-01-25T07:46:22;49.63;;;25.00;;
11439;SDS011;5776;51.814;4.510;2023-01-25T07:48:50;41.70;;;24.87;;
11439;SDS011;5776;51.814;4.510;2023-01-25T07:51:17;42.60;;;24.43;;
11439;SDS011;5776;51.814;4.510;2023-01-25T07:53:48;44.13;;;23.93;;
11439;SDS011;5776;51.814;4.510;2023-01-25T07:56:19;46.07;;;26.10;;
11439;SDS011;5776;51.814;4.510;2023-01-25T07:58:46;43.27;;;26.00;;
11439;SDS011;5776;51.814;4.510;2023-01-25T08:01:13;42.80;;;25.93;;
11439;SDS011;5776;51.814;4.510;2023-01-25T08:03:43;42.07;;;24.03;;
11439;SDS011;5776;51.814;4.510;2023-01-25T08:06:10;45.37;;;24.93;;
11439;SDS011;5776;51.814;4.510;2023-01-25T08:08:40;45.73;;;26.73;;
11439;SDS011;5776;51.814;4.510;2023-01-25T08:11:12;44.73;;;25.77;;
11439;SDS011;5776;51.814;4.510;2023-01-25T08:13:43;48.17;;;25.93;;
11439;SDS011;5776;51.814;4.510;2023-01-25T08:16:11;45.97;;;26.13;;
11439;SDS011;5776;51.814;4.510;2023-01-25T08:18:38;43.50;;;25.83;;
11439;SDS011;5776;51.814;4.510;2023-01-25T08:21:04;46.07;;;26.30;;
11439;SDS011;5776;51.814;4.510;2023-01-25T08:23:30;46.47;;;27.03;;
11439;SDS011;5776;51.814;4.510;2023-01-25T08:26:03;45.67;;;25.93;;
11439;SDS011;5776;51.814;4.510;2023-01-25T08:28:32;45.93;;;27.53;;
11439;SDS011;5776;51.814;4.510;2023-01-25T08:31:09;48.50;;;26.90;;
11439;SDS011;5776;51.814;4.510;2023-01-25T08:33:40;45.13;;;26.47;;
11439;SDS011;5776;51.814;4.510;2023-01-25T08:36:08;41.90;;;25.47;;
11439;SDS011;5776;51.814;4.510;2023-01-25T08:38:35;46.27;;;27.23;;
11439;SDS011;5776;51.814;4.510;2023-01-25T08:43:31;50.67;;;27.27;;
11439;SDS011;5776;51.814;4.510;2023-01-25T08:45:57;48.17;;;27.60;;
11439;SDS011;5776;51.814;4.510;2023-01-25T08:48:25;47.03;;;26.53;;
11439;SDS011;5776;51.814;4.510;2023-01-25T08:50:51;51.33;;;26.90;;
11439;SDS011;5776;51.814;4.510;2023-01-25T08:53:16;46.53;;;27.67;;
11439;SDS011;5776;51.814;4.510;2023-01-25T08:55:43;42.20;;;23.53;;
11439;SDS011;5776;51.814;4.510;2023-01-25T08:58:12;51.67;;;29.07;;
11439;SDS011;5776;51.814;4.510;2023-01-25T09:00:40;49.93;;;28.90;;
11439;SDS011;5776;51.814;4.510;2023-01-25T09:03:07;49.77;;;29.27;;
11439;SDS011;5776;51.814;4.510;2023-01-25T09:05:33;50.90;;;29.20;;
11439;SDS011;5776;51.814;4.510;2023-01-25T09:08:00;50.60;;;29.07;;
11439;SDS011;5776;51.814;4.510;2023-01-25T09:10:26;50.20;;;28.40;;
11439;SDS011;5776;51.814;4.510;2023-01-25T09:12:52;48.97;;;28.30;;
11439;SDS011;5776;51.814;4.510;2023-01-25T09:15:18;48.20;;;26.77;;
11439;SDS011;5776;51.814;4.510;2023-01-25T09:17:44;47.33;;;27.00;;
11439;SDS011;5776;51.814;4.510;2023-01-25T09:20:10;46.87;;;27.60;;
11439;SDS011;5776;51.814;4.510;2023-01-25T09:22:36;49.13;;;27.90;;
11439;SDS011;5776;51.814;4.510;2023-01-25T09:25:03;53.03;;;28.47;;
11439;SDS011;5776;51.814;4.510;2023-01-25T09:27:29;49.80;;;27.80;;
11439;SDS011;5776;51.814;4.510;2023-01-25T09:29:55;54.00;;;34.20;;
11439;SDS011;5776;51.814;4.510;2023-01-25T09:32:21;46.33;;;27.63;;
11439;SDS011;5776;51.814;4.510;2023-01-25T09:34:47;46.37;;;27.40;;
11439;SDS011;5776;51.814;4.510;2023-01-25T09:37:13;51.27;;;28.87;;
11439;SDS011;5776;51.814;4.510;2023-01-25T09:39:38;50.60;;;27.27;;
11439;SDS011;5776;51.814;4.510;2023-01-25T09:47:58;47.50;;;27.53;;
11439;SDS011;5776;51.814;4.510;2023-01-25T09:55:39;47.00;;;28.07;;
11439;SDS011;5776;51.814;4.510;2023-01-25T09:58:10;53.67;;;30.13;;
11439;SDS011;5776;51.814;4.510;2023-01-25T10:00:44;52.67;;;30.00;;
11439;SDS011;5776;51.814;4.510;2023-01-25T10:03:23;53.03;;;29.67;;
11439;SDS011;5776;51.814;4.510;2023-01-25T10:05:57;51.30;;;29.03;;
11439;SDS011;5776;51.814;4.510;2023-01-25T10:11:07;52.50;;;29.40;;
11439;SDS011;5776;51.814;4.510;2023-01-25T10:13:43;52.73;;;28.87;;
11439;SDS011;5776;51.814;4.510;2023-01-25T10:16:15;53.20;;;29.37;;
11439;SDS011;5776;51.814;4.510;2023-01-25T10:18:51;54.30;;;28.93;;
11439;SDS011;5776;51.814;4.510;2023-01-25T10:21:25;49.60;;;27.67;;
11439;SDS011;5776;51.814;4.510;2023-01-25T10:27:01;48.30;;;27.07;;
11439;SDS011;5776;51.814;4.510;2023-01-25T10:29:36;47.67;;;26.70;;
11439;SDS011;5776;51.814;4.510;2023-01-25T10:32:19;49.97;;;27.67;;
11439;SDS011;5776;51.814;4.510;2023-01-25T10:34:52;49.30;;;27.33;;
11439;SDS011;5776;51.814;4.510;2023-01-25T10:37:22;52.80;;;29.33;;
11439;SDS011;5776;51.814;4.510;2023-01-25T10:42:36;53.93;;;29.40;;
11439;SDS011;5776;51.814;4.510;2023-01-25T10:45:12;49.63;;;27.77;;
11439;SDS011;5776;51.814;4.510;2023-01-25T10:47:40;52.23;;;27.77;;
11439;SDS011;5776;51.814;4.510;2023-01-25T10:50:08;50.70;;;28.27;;
11439;SDS011;5776;51.814;4.510;2023-01-25T10:52:56;54.67;;;29.47;;
11439;SDS011;5776;51.814;4.510;2023-01-25T10:55:23;53.73;;;28.30;;
11439;SDS011;5776;51.814;4.510;2023-01-25T10:57:52;55.00;;;29.57;;
11439;SDS011;5776;51.814;4.510;2023-01-25T11:02:47;54.40;;;29.60;;
11439;SDS011;5776;51.814;4.510;2023-01-25T11:07:49;54.40;;;27.70;;
11439;SDS011;5776;51.814;4.510;2023-01-25T11:10:31;54.67;;;29.63;;
11439;SDS011;5776;51.814;4.510;2023-01-25T11:15:40;56.03;;;28.63;;
11439;SDS011;5776;51.814;4.510;2023-01-25T11:18:21;50.47;;;29.60;;
11439;SDS011;5776;51.814;4.510;2023-01-25T11:23:43;48.00;;;27.23;;
11439;SDS011;5776;51.814;4.510;2023-01-25T11:26:27;46.30;;;27.63;;
11439;SDS011;5776;51.814;4.510;2023-01-25T11:29:09;41.67;;;26.20;;
11439;SDS011;5776;51.814;4.510;2023-01-25T11:31:35;43.07;;;24.20;;
11439;SDS011;5776;51.814;4.510;2023-01-25T11:34:01;39.40;;;24.40;;
11439;SDS011;5776;51.814;4.510;2023-01-25T11:36:30;43.80;;;25.03;;
11439;SDS011;5776;51.814;4.510;2023-01-25T11:39:08;43.33;;;25.70;;
11439;SDS011;5776;51.814;4.510;2023-01-25T11:56:50;39.07;;;23.87;;
11439;SDS011;5776;51.814;4.510;2023-01-25T11:59:21;41.57;;;23.40;;
11439;SDS011;5776;51.814;4.510;2023-01-25T12:07:48;39.23;;;23.40;;
11439;SDS011;5776;51.814;4.510;2023-01-25T12:15:55;37.30;;;22.90;;
11439;SDS011;5776;51.814;4.510;2023-01-25T12:27:20;34.33;;;21.10;;
11439;SDS011;5776;51.814;4.510;2023-01-25T12:30:01;38.33;;;23.77;;
11439;SDS011;5776;51.814;4.510;2023-01-25T12:32:37;41.00;;;24.83;;
11439;SDS011;5776;51.814;4.510;2023-01-25T12:38:11;37.83;;;22.93;;
11439;SDS011;5776;51.814;4.510;2023-01-25T12:40:56;41.03;;;23.23;;
11439;SDS011;5776;51.814;4.510;2023-01-25T12:43:47;38.07;;;22.93;;
11439;SDS011;5776;51.814;4.510;2023-01-25T12:46:23;39.13;;;23.57;;
11439;SDS011;5776;51.814;4.510;2023-01-25T12:48:56;37.67;;;23.83;;
11439;SDS011;5776;51.814;4.510;2023-01-25T12:51:27;38.30;;;22.70;;
11439;SDS011;5776;51.814;4.510;2023-01-25T12:53:58;42.47;;;23.80;;
11439;SDS011;5776;51.814;4.510;2023-01-25T12:56:32;38.53;;;23.30;;
11439;SDS011;5776;51.814;4.510;2023-01-25T12:59:22;40.17;;;24.73;;
11439;SDS011;5776;51.814;4.510;2023-01-25T13:02:03;44.27;;;25.17;;
11439;SDS011;5776;51.814;4.510;2023-01-25T13:07:33;36.40;;;21.70;;
11439;SDS011;5776;51.814;4.510;2023-01-25T13:13:17;42.63;;;23.33;;
11439;SDS011;5776;51.814;4.510;2023-01-25T13:15:46;41.23;;;23.87;;
11439;SDS011;5776;51.814;4.510;2023-01-25T13:21:04;44.07;;;24.47;;
11439;SDS011;5776;51.814;4.510;2023-01-25T13:28:47;49.63;;;28.77;;
11439;SDS011;5776;51.814;4.510;2023-01-25T13:34:02;53.33;;;30.67;;
11439;SDS011;5776;51.814;4.510;2023-01-25T13:36:49;59.27;;;29.07;;
11439;SDS011;5776;51.814;4.510;2023-01-25T13:41:57;61.57;;;33.03;;
11439;SDS011;5776;51.814;4.510;2023-01-25T13:44:23;61.47;;;32.93;;
11439;SDS011;5776;51.814;4.510;2023-01-25T13:47:02;63.27;;;32.90;;
11439;SDS011;5776;51.814;4.510;2023-01-25T13:52:13;60.80;;;31.50;;
11439;SDS011;5776;51.814;4.510;2023-01-25T13:54:42;58.33;;;31.90;;
11439;SDS011;5776;51.814;4.510;2023-01-25T13:57:19;57.90;;;30.77;;
11439;SDS011;5776;51.814;4.510;2023-01-25T13:59:46;55.23;;;29.23;;
11439;SDS011;5776;51.814;4.510;2023-01-25T14:02:20;55.87;;;29.17;;
11439;SDS011;5776;51.814;4.510;2023-01-25T14:04:49;58.10;;;30.30;;
11439;SDS011;5776;51.814;4.510;2023-01-25T14:07:27;59.83;;;31.30;;
11439;SDS011;5776;51.814;4.510;2023-01-25T14:09:58;60.33;;;30.87;;
11439;SDS011;5776;51.814;4.510;2023-01-25T14:12:31;56.40;;;31.70;;
11439;SDS011;5776;51.814;4.510;2023-01-25T14:20:41;63.00;;;33.57;;
11439;SDS011;5776;51.814;4.510;2023-01-25T14:23:24;64.10;;;33.10;;
11439;SDS011;5776;51.814;4.510;2023-01-25T14:25:52;56.83;;;31.53;;
11439;SDS011;5776;51.814;4.510;2023-01-25T14:28:20;58.47;;;31.23;;
11439;SDS011;5776;51.814;4.510;2023-01-25T14:30:50;59.40;;;32.57;;
11439;SDS011;5776;51.814;4.510;2023-01-25T14:33:29;59.17;;;32.53;;
11439;SDS011;5776;51.814;4.510;2023-01-25T14:36:07;60.23;;;31.90;;
11439;SDS011;5776;51.814;4.510;2023-01-25T14:38:38;61.50;;;33.03;;
11439;SDS011;5776;51.814;4.510;2023-01-25T14:41:12;58.60;;;33.27;;
11439;SDS011;5776;51.814;4.510;2023-01-25T14:43:42;58.77;;;31.67;;
11439;SDS011;5776;51.814;4.510;2023-01-25T14:46:20;57.10;;;31.73;;
11439;SDS011;5776;51.814;4.510;2023-01-25T14:51:32;56.67;;;30.80;;
11439;SDS011;5776;51.814;4.510;2023-01-25T14:53:59;58.53;;;30.97;;
11439;SDS011;5776;51.814;4.510;2023-01-25T14:56:30;55.23;;;30.17;;
11439;SDS011;5776;51.814;4.510;2023-01-25T14:58:57;52.20;;;30.67;;
11439;SDS011;5776;51.814;4.510;2023-01-25T15:01:28;50.43;;;25.80;;
11439;SDS011;5776;51.814;4.510;2023-01-25T15:03:57;51.77;;;28.40;;
11439;SDS011;5776;51.814;4.510;2023-01-25T15:06:23;54.83;;;29.70;;
11439;SDS011;5776;51.814;4.510;2023-01-25T15:08:49;51.77;;;28.23;;
11439;SDS011;5776;51.814;4.510;2023-01-25T15:11:26;53.80;;;29.20;;
11439;SDS011;5776;51.814;4.510;2023-01-25T15:14:00;56.28;;;35.17;;
11439;SDS011;5776;51.814;4.510;2023-01-25T15:16:33;53.27;;;30.00;;
11439;SDS011;5776;51.814;4.510;2023-01-25T15:19:00;49.43;;;28.43;;
11439;SDS011;5776;51.814;4.510;2023-01-25T15:21:26;49.10;;;26.90;;
11439;SDS011;5776;51.814;4.510;2023-01-25T15:23:59;56.03;;;30.63;;
11439;SDS011;5776;51.814;4.510;2023-01-25T15:26:32;54.43;;;30.07;;
11439;SDS011;5776;51.814;4.510;2023-01-25T15:29:00;51.90;;;28.00;;
11439;SDS011;5776;51.814;4.510;2023-01-25T15:31:32;58.37;;;30.73;;
11439;SDS011;5776;51.814;4.510;2023-01-25T15:34:01;58.70;;;32.23;;
11439;SDS011;5776;51.814;4.510;2023-01-25T15:36:28;57.77;;;32.43;;
11439;SDS011;5776;51.814;4.510;2023-01-25T15:38:55;59.33;;;32.60;;
11439;SDS011;5776;51.814;4.510;2023-01-25T15:41:21;56.27;;;28.90;;
11439;SDS011;5776;51.814;4.510;2023-01-25T15:43:47;62.73;;;33.23;;
11439;SDS011;5776;51.814;4.510;2023-01-25T15:46:15;62.00;;;32.83;;
11439;SDS011;5776;51.814;4.510;2023-01-25T15:48:45;61.23;;;31.67;;
11439;SDS011;5776;51.814;4.510;2023-01-25T15:51:13;58.10;;;32.27;;
11439;SDS011;5776;51.814;4.510;2023-01-25T15:53:39;57.63;;;30.73;;
11439;SDS011;5776;51.814;4.510;2023-01-25T15:56:15;62.80;;;32.50;;
11439;SDS011;5776;51.814;4.510;2023-01-25T15:58:44;65.80;;;33.67;;
11439;SDS011;5776;51.814;4.510;2023-01-25T16:01:13;67.53;;;34.57;;
11439;SDS011;5776;51.814;4.510;2023-01-25T16:03:39;65.37;;;34.33;;
11439;SDS011;5776;51.814;4.510;2023-01-25T16:06:12;65.07;;;35.47;;
11439;SDS011;5776;51.814;4.510;2023-01-25T16:08:41;65.73;;;34.17;;
11439;SDS011;5776;51.814;4.510;2023-01-25T16:11:07;68.73;;;35.57;;
11439;SDS011;5776;51.814;4.510;2023-01-25T16:13:32;68.47;;;34.40;;
11439;SDS011;5776;51.814;4.510;2023-01-25T16:15:58;76.93;;;38.47;;
11439;SDS011;5776;51.814;4.510;2023-01-25T16:18:24;74.97;;;37.27;;
11439;SDS011;5776;51.814;4.510;2023-01-25T16:20:49;78.87;;;38.83;;
11439;SDS011;5776;51.814;4.510;2023-01-25T16:23:15;78.70;;;40.03;;
11439;SDS011;5776;51.814;4.510;2023-01-25T16:25:42;95.97;;;50.87;;
11439;SDS011;5776;51.814;4.510;2023-01-25T16:28:15;81.17;;;40.30;;
11439;SDS011;5776;51.814;4.510;2023-01-25T16:30:41;78.50;;;40.03;;
11439;SDS011;5776;51.814;4.510;2023-01-25T16:33:11;81.17;;;40.87;;
11439;SDS011;5776;51.814;4.510;2023-01-25T16:35:37;82.83;;;41.67;;